Time;durP1;ratioP1;P1;durP2;ratioP2;P2;SDS_P1;SDS_P2;PMS_P1;PMS_P2;Temp;Humidity;BMP_temperature;BMP_pressure;BME280_temperature;BME280_humidity;BME280_pressure;Samples;Min_cycle;Max_cycle;Signal;HPM_P1;HPM_P2
2023/11/08 00:01:52;;;;;;;5.60;0.88;;;;;;;8.53;100.00;98854.31;4940690;28;20118;-92
2023/11/08 00:04:19;;;;;;;7.25;1.00;;;;;;;8.53;100.00;98849.03;4927780;28;20078;-91
2023/11/08 00:06:45;;;;;;;8.27;1.15;;;;;;;8.56;100.00;98844.28;4926602;29;20034;-91
2023/11/08 00:09:14;;;;;;;6.20;0.95;;;;;;;8.58;100.00;98838.84;4936246;28;20070;-93
2023/11/08 00:11:41;;;;;;;10.07;1.13;;;;;;;8.59;100.00;98839.66;4939523;28;20075;-93
2023/11/08 00:14:08;;;;;;;6.05;1.00;;;;;;;8.63;100.00;98828.59;4955310;28;20043;-90
2023/11/08 00:16:34;;;;;;;9.35;1.17;;;;;;;8.63;100.00;98825.97;4950895;29;20046;-96
2023/11/08 00:19:00;;;;;;;7.15;0.98;;;;;;;8.64;100.00;98809.19;4944784;28;20395;-96
2023/11/08 00:21:29;;;;;;;7.03;0.80;;;;;;;8.62;100.00;98800.63;4946550;28;20039;-95
2023/11/08 00:23:54;;;;;;;13.52;1.13;;;;;;;8.66;100.00;98809.81;4949781;28;20496;-95
2023/11/08 00:26:23;;;;;;;7.05;1.00;;;;;;;8.69;100.00;98795.50;4913370;29;20045;-95
2023/11/08 00:28:49;;;;;;;6.05;0.90;;;;;;;8.72;100.00;98783.78;4945411;28;20039;-95
2023/11/08 00:31:15;;;;;;;6.00;1.15;;;;;;;8.70;100.00;98770.81;4947334;29;20391;-91
2023/11/08 00:33:42;;;;;;;8.23;1.05;;;;;;;8.71;100.00;98759.28;4928735;28;20043;-89
2023/11/08 00:36:08;;;;;;;4.53;0.75;;;;;;;8.70;100.00;98744.47;4947736;28;20027;-96
2023/11/08 00:38:34;;;;;;;8.25;1.10;;;;;;;8.71;100.00;98738.22;4942094;28;20502;-96
2023/11/08 00:40:59;;;;;;;10.15;0.88;;;;;;;8.73;100.00;98725.66;4952236;28;20071;-95
2023/11/08 00:43:25;;;;;;;4.40;0.95;;;;;;;8.77;100.00;98731.41;4928447;28;20048;-96
2023/11/08 00:45:51;;;;;;;5.43;0.93;;;;;;;8.79;100.00;98722.34;4959338;28;20579;-90
2023/11/08 00:48:18;;;;;;;6.75;1.05;;;;;;;8.78;100.00;98704.91;4930828;29;20082;-90
2023/11/08 00:50:44;;;;;;;8.13;0.73;;;;;;;8.74;100.00;98694.88;4934994;28;20031;-95
2023/11/08 00:53:15;;;;;;;6.43;0.73;;;;;;;8.84;100.00;98681.50;4938772;28;20073;-96
2023/11/08 00:55:42;;;;;;;5.53;0.85;;;;;;;8.81;100.00;98657.13;4942915;28;20049;-95
2023/11/08 00:58:10;;;;;;;6.57;0.80;;;;;;;8.78;100.00;98652.22;4957129;28;20117;-96
2023/11/08 01:00:36;;;;;;;8.20;0.90;;;;;;;8.85;100.00;98657.59;4941731;28;20090;-92
2023/11/08 01:03:02;;;;;;;7.60;0.80;;;;;;;8.80;100.00;98634.41;4931953;28;20031;-90
2023/11/08 01:05:30;;;;;;;8.30;0.80;;;;;;;8.80;100.00;98637.06;4928222;29;20039;-96
2023/11/08 01:07:56;;;;;;;5.13;0.60;;;;;;;8.78;100.00;98630.31;4940615;28;20050;-95
2023/11/08 01:10:22;;;;;;;7.25;0.70;;;;;;;8.83;100.00;98616.59;4930862;29;20039;-95
2023/11/08 01:12:50;;;;;;;8.75;2.00;;;;;;;8.82;100.00;98600.00;4954359;28;20071;-95
2023/11/08 01:15:17;;;;;;;7.15;0.95;;;;;;;8.88;100.00;98586.09;4954110;28;20042;-96
2023/11/08 01:17:43;;;;;;;6.65;0.60;;;;;;;8.85;100.00;98570.66;4923330;28;20050;-94
2023/11/08 01:20:10;;;;;;;2.00;0.47;;;;;;;8.90;100.00;98585.94;4934371;28;20455;-95
2023/11/08 01:22:36;;;;;;;4.93;0.60;;;;;;;8.90;100.00;98563.00;4940905;28;20049;-95
2023/11/08 01:25:03;;;;;;;8.60;0.80;;;;;;;8.96;100.00;98571.19;4918255;29;20055;-95
2023/11/08 01:27:29;;;;;;;4.38;0.55;;;;;;;8.95;100.00;98557.19;4926263;28;20094;-95
2023/11/08 01:29:55;;;;;;;3.13;0.40;;;;;;;8.99;100.00;98553.22;4961314;28;20043;-95
2023/11/08 01:32:21;;;;;;;7.05;0.70;;;;;;;8.93;100.00;98540.78;4947128;28;20410;-96
2023/11/08 01:34:47;;;;;;;7.80;1.23;;;;;;;8.97;100.00;98534.13;4938757;28;20043;-96
2023/11/08 01:37:13;;;;;;;7.18;0.65;;;;;;;9.04;100.00;98536.88;4921702;28;20106;-95
2023/11/08 01:39:38;;;;;;;5.25;0.98;;;;;;;9.06;100.00;98529.59;4944415;28;20034;-95
2023/11/08 01:42:04;;;;;;;1.52;0.40;;;;;;;9.08;100.00;98532.84;4947579;28;20043;-96
2023/11/08 01:44:30;;;;;;;6.88;0.68;;;;;;;9.12;100.00;98522.78;4941014;28;20578;-95
2023/11/08 01:46:57;;;;;;;5.35;0.73;;;;;;;9.18;100.00;98507.06;4941266;28;20070;-90
2023/11/08 01:49:28;;;;;;;9.35;0.65;;;;;;;9.24;100.00;98500.22;4943924;29;20111;-92
2023/11/08 01:52:01;;;;;;;4.32;1.02;;;;;;;9.22;100.00;98483.75;4962914;28;20042;-96
2023/11/08 01:54:35;;;;;;;5.35;0.90;;;;;;;9.22;100.00;98470.56;4940046;29;20062;-96
2023/11/08 01:57:03;;;;;;;2.47;0.80;;;;;;;9.33;100.00;98473.75;4943099;28;20030;-96
2023/11/08 01:59:33;;;;;;;5.55;0.95;;;;;;;9.30;100.00;98457.28;4943325;29;20451;-95
2023/11/08 02:02:07;;;;;;;5.00;0.68;;;;;;;9.37;100.00;98453.91;4934128;29;20051;-96
2023/11/08 02:04:35;;;;;;;6.05;0.40;;;;;;;9.35;100.00;98438.28;4944277;28;20039;-96
2023/11/08 02:07:01;;;;;;;3.75;0.50;;;;;;;9.36;100.00;98424.13;4944833;29;20035;-96
2023/11/08 02:09:29;;;;;;;4.80;0.52;;;;;;;9.43;100.00;98429.44;4944383;28;20493;-96
2023/11/08 02:11:58;;;;;;;5.47;0.40;;;;;;;9.43;100.00;98408.34;4945227;28;20615;-88
2023/11/08 02:14:25;;;;;;;7.28;0.32;;;;;;;9.40;100.00;98393.72;4928207;28;20402;-90
2023/11/08 02:16:51;;;;;;;3.55;0.40;;;;;;;9.46;100.00;98404.53;4940040;29;20039;-95
2023/11/08 02:19:16;;;;;;;1.17;0.13;;;;;;;9.50;100.00;98396.06;4949444;28;20070;-95
2023/11/08 02:21:43;;;;;;;2.00;0.73;;;;;;;9.52;100.00;98388.75;4946907;28;20038;-96
2023/11/08 02:24:17;;;;;;;1.00;0.20;;;;;;;9.60;100.00;98374.66;4926018;28;20045;-95
2023/11/08 02:26:49;;;;;;;0.25;0.13;;;;;;;9.60;100.00;98371.19;4932367;29;20031;-93
2023/11/08 02:29:17;;;;;;;3.97;0.50;;;;;;;9.61;100.00;98371.00;4951195;28;20112;-94
2023/11/08 02:31:50;;;;;;;0.63;0.20;;;;;;;9.65;100.00;98347.69;4947211;28;20400;-96
2023/11/08 02:34:17;;;;;;;3.80;0.30;;;;;;;9.65;100.00;98347.69;4938470;28;20126;-96
2023/11/08 02:36:43;;;;;;;1.13;0.10;;;;;;;9.66;100.00;98338.78;4958318;28;20039;-92
2023/11/08 02:39:08;;;;;;;1.52;0.50;;;;;;;9.75;100.00;98337.63;4968956;28;20455;-92
2023/11/08 02:41:35;;;;;;;2.55;0.20;;;;;;;9.78;100.00;98334.59;4928064;29;20043;-96
2023/11/08 02:44:02;;;;;;;1.08;0.15;;;;;;;9.82;100.00;98321.84;4941574;28;20058;-96
2023/11/08 02:46:30;;;;;;;1.88;0.28;;;;;;;9.84;100.00;98322.47;4917884;29;20031;-96
2023/11/08 02:48:59;;;;;;;1.52;0.40;;;;;;;9.79;100.00;98315.13;4940450;28;20427;-96
2023/11/08 02:51:28;;;;;;;1.02;0.25;;;;;;;9.77;100.00;98314.50;4949961;28;20041;-96
2023/11/08 02:53:58;;;;;;;0.70;0.10;;;;;;;9.87;100.00;98305.44;4943087;28;20051;-96
2023/11/08 02:56:25;;;;;;;1.25;0.10;;;;;;;9.88;100.00;98304.41;4928985;28;20042;-96
2023/11/08 02:58:53;;;;;;;2.67;0.20;;;;;;;9.89;100.00;98306.06;4948223;28;20042;-96
2023/11/08 03:01:21;;;;;;;1.02;0.08;;;;;;;9.99;100.00;98317.09;4948328;28;20057;-96
2023/11/08 03:03:49;;;;;;;0.98;0.20;;;;;;;10.08;100.00;98304.53;4958042;28;20121;-96
2023/11/08 03:06:14;;;;;;;0.70;0.25;;;;;;;10.02;100.00;98292.94;4946488;28;20112;-95
2023/11/08 03:08:46;;;;;;;0.30;0.00;;;;;;;10.12;100.00;98297.88;4944759;29;20043;-95
2023/11/08 03:11:12;;;;;;;0.57;0.10;;;;;;;10.15;100.00;98297.50;4944258;28;20039;-91
2023/11/08 03:13:38;;;;;;;0.45;0.05;;;;;;;10.21;100.00;98303.00;4933925;28;20034;-91
2023/11/08 03:16:06;;;;;;;0.10;0.00;;;;;;;10.32;100.00;98320.13;4952778;28;20089;-96
2023/11/08 03:18:31;;;;;;;0.52;0.10;;;;;;;10.36;100.00;98311.59;4943849;28;20562;-96
2023/11/08 03:20:57;;;;;;;0.25;0.00;;;;;;;10.43;100.00;98304.53;4946495;28;20042;-96
2023/11/08 03:23:23;;;;;;;0.00;0.00;;;;;;;10.45;100.00;98309.59;4938542;28;20034;-96
2023/11/08 03:25:52;;;;;;;0.30;0.00;;;;;;;10.53;100.00;98321.84;4955106;28;20027;-95
2023/11/08 03:28:21;;;;;;;0.22;0.00;;;;;;;10.60;100.00;98317.44;4945279;28;20046;-96
2023/11/08 03:30:47;;;;;;;0.05;0.00;;;;;;;10.61;100.00;98318.22;4932870;28;20035;-95
2023/11/08 03:33:13;;;;;;;0.00;0.00;;;;;;;10.61;100.00;98313.78;4929637;28;20038;-89
2023/11/08 03:35:38;;;;;;;0.05;0.00;;;;;;;10.63;100.00;98314.41;4940356;28;20042;-96
2023/11/08 03:38:04;;;;;;;0.08;0.00;;;;;;;10.66;100.00;98329.84;4932994;28;20035;-96
2023/11/08 03:40:33;;;;;;;0.15;0.00;;;;;;;10.62;100.00;98349.72;4934831;28;20102;-96
2023/11/08 03:43:00;;;;;;;0.10;0.00;;;;;;;10.55;100.00;98348.91;4950449;28;20054;-96
2023/11/08 03:45:31;;;;;;;0.00;0.00;;;;;;;10.56;100.00;98355.00;4949397;28;20197;-96
2023/11/08 03:48:07;;;;;;;1.48;0.08;;;;;;;10.50;100.00;98375.91;4966038;28;20042;-96
2023/11/08 03:50:33;;;;;;;;;;;;;;;10.40;100.00;98356.94;4949499;28;20062;-96
2023/11/08 03:53:00;;;;;;;1.80;0.20;;;;;;;10.22;100.00;98384.66;4974508;28;19917;-95
2023/11/08 03:55:27;;;;;;;5.22;0.32;;;;;;;10.00;100.00;98370.69;4951447;28;20042;-93
2023/11/08 03:57:52;;;;;;;4.68;0.52;;;;;;;10.01;100.00;98383.69;4939387;29;20046;-91
2023/11/08 04:00:18;;;;;;;9.65;0.57;;;;;;;9.91;100.00;98388.47;4936052;28;20039;-90
2023/11/08 04:02:44;;;;;;;4.35;0.60;;;;;;;9.90;100.00;98398.25;4953885;28;20074;-92
2023/11/08 04:05:10;;;;;;;8.35;0.98;;;;;;;9.84;100.00;98393.72;4923323;29;20043;-92
2023/11/08 04:07:43;;;;;;;8.10;0.90;;;;;;;9.81;100.00;98399.34;4948645;29;20055;-96
2023/11/08 04:10:14;;;;;;;11.40;2.17;;;;;;;9.78;100.00;98395.28;4947302;28;20065;-96
2023/11/08 04:12:40;;;;;;;7.90;1.10;;;;;;;9.71;100.00;98412.06;4945675;28;20043;-96
2023/11/08 04:15:07;;;;;;;8.98;1.10;;;;;;;9.63;100.00;98407.72;4949042;28;20031;-96
2023/11/08 04:17:33;;;;;;;13.07;2.08;;;;;;;9.65;100.00;98413.66;4942421;28;20030;-91
2023/11/08 04:19:59;;;;;;;10.38;1.58;;;;;;;9.61;100.00;98409.72;4937527;28;20050;-89
2023/11/08 04:22:26;;;;;;;19.40;2.65;;;;;;;9.57;100.00;98419.88;4938311;29;20030;-96
2023/11/08 04:24:56;;;;;;;11.18;1.05;;;;;;;9.55;100.00;98412.13;4944347;28;20057;-96
2023/11/08 04:27:22;;;;;;;16.77;1.95;;;;;;;9.59;100.00;98425.75;4940665;29;20114;-95
2023/11/08 04:29:49;;;;;;;7.22;1.50;;;;;;;9.58;100.00;98420.66;4969744;28;20122;-94
2023/11/08 04:32:15;;;;;;;12.80;1.60;;;;;;;9.58;100.00;98428.56;4947305;29;20201;-96
2023/11/08 04:34:42;;;;;;;13.30;1.73;;;;;;;9.53;100.00;98424.69;4964931;28;20042;-96
2023/11/08 04:37:09;;;;;;;11.15;1.98;;;;;;;9.55;100.00;98422.69;4951868;28;20031;-96
2023/11/08 04:39:37;;;;;;;17.85;2.60;;;;;;;9.51;100.00;98429.31;4945446;29;20106;-96
2023/11/08 04:42:05;;;;;;;14.80;1.80;;;;;;;9.55;100.00;98435.06;4943441;28;20114;-96
2023/11/08 04:44:31;;;;;;;8.20;1.73;;;;;;;9.54;100.00;98439.50;4959087;28;20049;-96
2023/11/08 04:46:57;;;;;;;19.38;3.05;;;;;;;9.54;100.00;98451.88;4940731;29;20038;-96
2023/11/08 04:49:23;;;;;;;20.02;2.88;;;;;;;9.53;100.00;98461.63;4934187;29;20075;-96
2023/11/08 04:51:49;;;;;;;13.60;1.80;;;;;;;9.50;100.00;98484.91;4949680;28;20030;-96
2023/11/08 04:54:15;;;;;;;15.93;1.70;;;;;;;9.41;100.00;98479.72;4933519;29;20111;-96
2023/11/08 04:56:43;;;;;;;17.40;2.40;;;;;;;9.36;100.00;98482.13;4958786;29;20036;-96
2023/11/08 04:59:12;;;;;;;14.57;2.08;;;;;;;9.37;100.00;98490.84;4943180;29;20047;-96
2023/11/08 05:01:39;;;;;;;14.43;2.00;;;;;;;9.35;100.00;98488.38;4935699;29;20051;-94
2023/11/08 05:04:07;;;;;;;16.20;2.40;;;;;;;9.35;100.00;98485.75;4933980;29;20055;-91
2023/11/08 05:06:32;;;;;;;17.67;3.55;;;;;;;9.33;100.00;98498.31;4935068;29;20035;-93
2023/11/08 05:08:58;;;;;;;16.25;3.08;;;;;;;9.33;100.00;98498.31;4919741;29;20042;-91
2023/11/08 05:11:25;;;;;;;18.40;2.67;;;;;;;9.31;100.00;98518.75;4939999;29;20046;-96
2023/11/08 05:13:51;;;;;;;11.73;2.33;;;;;;;9.27;100.00;98520.13;4963494;28;20714;-96
2023/11/08 05:16:21;;;;;;;13.70;1.55;;;;;;;9.21;100.00;98499.75;4946807;29;20036;-96
2023/11/08 05:18:47;;;;;;;7.53;1.20;;;;;;;9.05;100.00;98512.97;4934223;29;20035;-96
2023/11/08 05:21:13;;;;;;;11.25;1.52;;;;;;;8.98;100.00;98514.69;4941368;29;20416;-91
2023/11/08 05:23:39;;;;;;;16.52;2.15;;;;;;;8.89;100.00;98513.13;4934340;29;20035;-90
2023/11/08 05:26:06;;;;;;;12.73;1.50;;;;;;;8.84;100.00;98518.16;4951838;29;20039;-95
2023/11/08 05:28:32;;;;;;;14.18;2.83;;;;;;;8.81;100.00;98524.56;4931522;29;20039;-96
2023/11/08 05:30:58;;;;;;;15.00;1.88;;;;;;;8.76;100.00;98538.28;4942008;29;20488;-91
2023/11/08 05:33:24;;;;;;;13.88;2.28;;;;;;;8.70;100.00;98549.53;4954118;29;20038;-91
2023/11/08 05:35:50;;;;;;;13.88;2.50;;;;;;;8.67;100.00;98552.53;4926208;29;20051;-96
2023/11/08 05:38:16;;;;;;;14.25;2.22;;;;;;;8.61;100.00;98548.00;4943902;29;20055;-96
2023/11/08 05:40:44;;;;;;;14.10;2.10;;;;;;;8.62;100.00;98550.44;4927522;29;20035;-96
2023/11/08 05:43:10;;;;;;;12.60;1.85;;;;;;;8.59;100.00;98561.34;4955756;29;20031;-96
2023/11/08 05:45:36;;;;;;;11.00;1.35;;;;;;;8.57;100.00;98568.59;4954249;28;20041;-93
2023/11/08 05:48:03;;;;;;;17.02;2.00;;;;;;;8.52;100.00;98570.91;4940464;29;20380;-93
2023/11/08 05:50:28;;;;;;;17.23;2.50;;;;;;;8.51;100.00;98572.72;4924480;29;21025;-95
2023/11/08 05:52:54;;;;;;;14.20;2.40;;;;;;;8.45;100.00;98570.81;4943921;29;20063;-96
2023/11/08 05:55:20;;;;;;;15.43;2.20;;;;;;;8.43;100.00;98576.25;4931846;29;20055;-96
2023/11/08 05:57:46;;;;;;;7.63;2.13;;;;;;;8.35;100.00;98581.56;4949255;29;20118;-96
2023/11/08 06:00:14;;;;;;;12.50;2.08;;;;;;;8.29;100.00;98583.09;4933483;29;20043;-96
2023/11/08 06:02:40;;;;;;;13.15;1.92;;;;;;;8.33;100.00;98601.97;4943902;29;20076;-95
2023/11/08 06:05:06;;;;;;;20.13;2.45;;;;;;;8.25;100.00;98605.47;4950764;29;20110;-96
2023/11/08 06:07:32;;;;;;;20.30;2.40;;;;;;;8.24;100.00;98609.13;4938485;29;20019;-92
2023/11/08 06:10:00;;;;;;;15.02;2.15;;;;;;;8.24;100.00;98617.03;4932583;29;20036;-93
2023/11/08 06:12:27;;;;;;;21.30;3.03;;;;;;;8.21;100.00;98627.06;4931412;29;20028;-96
2023/11/08 06:14:53;;;;;;;13.95;3.00;;;;;;;8.19;100.00;98627.25;4949719;29;20046;-96
2023/11/08 06:17:19;;;;;;;19.20;2.70;;;;;;;8.17;100.00;98632.69;4944268;29;20031;-96
2023/11/08 06:19:47;;;;;;;21.40;2.40;;;;;;;8.16;100.00;98632.84;4944463;29;20047;-96
2023/11/08 06:22:17;;;;;;;18.23;3.15;;;;;;;8.13;100.00;98638.47;4943850;29;20484;-96
2023/11/08 06:24:43;;;;;;;18.35;3.58;;;;;;;8.12;100.00;98632.38;4946308;29;20046;-96
2023/11/08 06:27:11;;;;;;;18.60;2.72;;;;;;;8.16;100.00;98646.00;4942710;29;20067;-96
2023/11/08 06:29:39;;;;;;;31.30;10.25;;;;;;;8.15;100.00;98639.13;4938977;29;20039;-96
2023/11/08 06:32:07;;;;;;;20.42;3.10;;;;;;;8.14;100.00;98640.91;4945305;28;20122;-96
2023/11/08 06:34:33;;;;;;;23.40;3.15;;;;;;;8.14;100.00;98642.72;4939221;28;20038;-96
2023/11/08 06:36:59;;;;;;;21.77;3.55;;;;;;;8.14;100.00;98645.34;4925672;29;20480;-95
2023/11/08 06:39:25;;;;;;;21.08;2.40;;;;;;;8.14;100.00;98653.25;4922923;29;20044;-95
2023/11/08 06:41:51;;;;;;;29.20;3.53;;;;;;;8.13;100.00;98651.63;4937939;29;20066;-96
2023/11/08 06:44:16;;;;;;;34.05;3.95;;;;;;;8.10;100.00;98668.59;4934708;29;20047;-96
2023/11/08 06:46:42;;;;;;;21.83;3.33;;;;;;;8.04;100.00;98671.91;4932365;29;20067;-95
2023/11/08 06:49:08;;;;;;;17.40;3.20;;;;;;;8.00;100.00;98687.22;4956539;29;20098;-95
2023/11/08 06:51:34;;;;;;;23.10;3.03;;;;;;;8.02;100.00;98682.59;4925111;29;20489;-96
2023/11/08 06:54:00;;;;;;;24.08;3.15;;;;;;;8.02;100.00;98677.34;4937544;29;20098;-96
2023/11/08 06:56:26;;;;;;;26.58;4.68;;;;;;;7.96;100.00;98682.47;4922850;29;20040;-92
2023/11/08 06:58:52;;;;;;;15.20;2.75;;;;;;;7.91;100.00;98680.34;4938117;29;20365;-93
2023/11/08 07:01:17;;;;;;;20.38;3.80;;;;;;;7.90;100.00;98683.97;4936773;29;20044;-95
2023/11/08 07:03:43;;;;;;;20.02;3.53;;;;;;;7.85;100.00;98686.28;4944686;29;20038;-96
2023/11/08 07:06:09;;;;;;;21.92;3.70;;;;;;;7.80;100.00;98686.81;4930751;29;20038;-96
2023/11/08 07:08:35;;;;;;;18.45;3.63;;;;;;;7.81;100.00;98689.25;4944706;29;20054;-96
2023/11/08 07:11:00;;;;;;;24.40;3.53;;;;;;;7.75;100.00;98686.47;4923541;29;20039;-96
2023/11/08 07:13:26;;;;;;;28.10;6.38;;;;;;;7.70;100.00;98687.00;4919335;29;20048;-96
2023/11/08 07:15:53;;;;;;;22.63;3.47;;;;;;;7.77;100.00;98700.28;4926259;29;20090;-96
2023/11/08 07:18:19;;;;;;;18.38;3.58;;;;;;;7.68;100.00;98702.09;4937395;29;20043;-96
2023/11/08 07:20:45;;;;;;;24.50;3.50;;;;;;;7.67;100.00;98711.81;4936910;29;20035;-95
2023/11/08 07:23:11;;;;;;;23.05;3.90;;;;;;;7.65;100.00;98711.16;4935187;29;20113;-96
2023/11/08 07:25:37;;;;;;;18.10;3.28;;;;;;;7.62;100.00;98714.13;4918411;29;20063;-95
2023/11/08 07:28:05;;;;;;;19.02;3.30;;;;;;;7.60;100.00;98721.34;4954210;29;20031;-96
2023/11/08 07:30:31;;;;;;;23.38;4.45;;;;;;;7.55;100.00;98734.19;4934430;29;20036;-96
2023/11/08 07:32:57;;;;;;;19.33;3.20;;;;;;;7.52;100.00;98737.97;4939349;28;20574;-96
2023/11/08 07:35:23;;;;;;;31.83;3.70;;;;;;;7.48;100.00;98746.38;4931399;29;20043;-96
2023/11/08 07:37:49;;;;;;;28.58;4.20;;;;;;;7.45;100.00;98750.16;4929636;29;20039;-95
2023/11/08 07:43:10;;;;;;;20.48;3.67;;;;;;;7.45;100.00;98763.28;5077083;23;20055;-95
2023/11/08 07:45:36;;;;;;;22.52;3.42;;;;;;;7.45;100.00;98760.66;4904124;29;20031;-96
2023/11/08 07:48:03;;;;;;;25.65;3.30;;;;;;;7.41;100.00;98773.31;4974510;23;20062;-96
2023/11/08 07:50:29;;;;;;;20.33;3.30;;;;;;;7.40;100.00;98784.00;4922739;29;20051;-95
2023/11/08 07:52:55;;;;;;;23.95;3.33;;;;;;;7.43;100.00;98787.13;4943307;28;20107;-94
2023/11/08 07:55:20;;;;;;;20.50;3.85;;;;;;;7.34;100.00;98780.22;4962210;28;20111;-94
2023/11/08 07:57:46;;;;;;;19.35;3.03;;;;;;;7.33;100.00;98781.19;4956524;28;20489;-94
2023/11/08 08:00:14;;;;;;;26.17;3.88;;;;;;;7.31;100.00;98778.72;4939007;29;20040;-94
2023/11/08 08:02:45;;;;;;;29.83;4.68;;;;;;;7.30;100.00;98787.63;4924976;29;20031;-96
2023/11/08 08:05:14;;;;;;;29.40;3.67;;;;;;;7.21;100.00;98793.84;4970174;28;20043;-96
2023/11/08 08:07:40;;;;;;;17.48;3.78;;;;;;;7.26;100.00;98803.88;4970909;28;20043;-96
2023/11/08 08:10:07;;;;;;;18.25;3.28;;;;;;;7.27;100.00;98814.22;4956667;28;20071;-96
2023/11/08 08:12:35;;;;;;;24.90;3.88;;;;;;;7.30;100.00;98816.53;4926597;29;20031;-96
2023/11/08 08:15:01;;;;;;;20.13;3.38;;;;;;;7.23;100.00;98823.41;4956282;29;20067;-96
2023/11/08 08:17:28;;;;;;;24.83;4.20;;;;;;;7.20;100.00;98824.56;4936459;29;20035;-96
2023/11/08 08:19:55;;;;;;;17.00;2.97;;;;;;;7.19;100.00;98828.19;4931083;29;20043;-96
2023/11/08 08:22:22;;;;;;;28.30;3.75;;;;;;;7.24;100.00;98835.56;4932204;29;20051;-96
2023/11/08 08:24:48;;;;;;;26.73;3.55;;;;;;;7.18;100.00;98834.41;4935412;29;20046;-96
2023/11/08 08:27:14;;;;;;;25.95;4.15;;;;;;;7.17;100.00;98831.94;4949655;29;20146;-96
2023/11/08 08:29:41;;;;;;;24.48;3.83;;;;;;;7.12;100.00;98840.31;4937088;29;20032;-95
2023/11/08 08:32:08;;;;;;;25.58;3.97;;;;;;;7.12;100.00;98850.81;4963800;28;20031;-96
2023/11/08 08:34:34;;;;;;;29.17;3.50;;;;;;;7.12;100.00;98865.78;4964973;28;20047;-95
2023/11/08 08:37:00;;;;;;;26.15;2.78;;;;;;;7.11;100.00;98864.94;4919404;29;20051;-95
2023/11/08 08:39:27;;;;;;;30.67;4.45;;;;;;;7.04;100.00;98862.13;4936646;29;20032;-96
2023/11/08 08:41:54;;;;;;;17.60;3.47;;;;;;;7.05;100.00;98860.34;4963452;28;20130;-96
2023/11/08 08:44:20;;;;;;;21.55;3.15;;;;;;;7.06;100.00;98867.22;4933675;29;20106;-95
2023/11/08 08:46:46;;;;;;;24.95;4.22;;;;;;;7.09;100.00;98876.59;4963392;28;20071;-95
2023/11/08 08:49:14;;;;;;;25.00;4.93;;;;;;;7.05;100.00;98876.09;4937466;29;20444;-96
2023/11/08 08:51:40;;;;;;;16.25;2.83;;;;;;;7.03;100.00;98885.94;4941433;28;20126;-95
2023/11/08 08:54:07;;;;;;;25.00;4.22;;;;;;;7.03;100.00;98878.88;4935485;29;20036;-95
2023/11/08 08:56:34;;;;;;;22.15;3.20;;;;;;;7.12;100.00;98900.72;4950768;29;20074;-94
2023/11/08 08:59:00;;;;;;;24.27;2.95;;;;;;;7.06;100.00;98894.31;4897453;29;20123;-93
2023/11/08 09:01:26;;;;;;;21.80;3.78;;;;;;;7.11;100.00;98893.00;4948169;29;20040;-96
2023/11/08 09:03:52;;;;;;;17.35;2.63;;;;;;;7.07;100.00;98895.97;4924581;29;20051;-96
2023/11/08 09:06:19;;;;;;;14.15;3.05;;;;;;;7.10;100.00;98901.88;4953284;29;20032;-95
2023/11/08 09:08:46;;;;;;;25.42;3.13;;;;;;;7.08;100.00;98909.94;4942677;28;20508;-95
2023/11/08 09:11:12;;;;;;;19.13;3.80;;;;;;;7.04;100.00;98911.25;4952231;29;20039;-93
2023/11/08 09:13:37;;;;;;;22.98;3.45;;;;;;;7.02;100.00;98908.78;4928728;29;20071;-94
2023/11/08 09:16:07;;;;;;;18.63;3.58;;;;;;;7.04;100.00;98914.69;4947658;28;20036;-95
2023/11/08 09:18:36;;;;;;;20.52;2.88;;;;;;;7.03;100.00;98915.66;4920770;29;20110;-95
2023/11/08 09:21:03;;;;;;;11.88;2.42;;;;;;;7.00;100.00;98920.41;4913456;29;20059;-94
2023/11/08 09:23:31;;;;;;;19.52;3.28;;;;;;;7.00;100.00;98918.63;4890509;29;20134;-94
2023/11/08 09:25:58;;;;;;;20.13;3.08;;;;;;;6.98;100.00;98917.09;4953122;28;20038;-94
2023/11/08 09:28:25;;;;;;;17.88;2.17;;;;;;;7.00;100.00;98923.03;4944277;28;20037;-93
2023/11/08 09:30:52;;;;;;;13.80;2.03;;;;;;;6.95;100.00;98924.34;4928748;29;20117;-92
2023/11/08 09:33:18;;;;;;;11.63;2.10;;;;;;;6.91;100.00;98924.81;4920612;29;20452;-93
2023/11/08 09:35:44;;;;;;;14.02;2.08;;;;;;;6.87;100.00;98923.47;4907050;29;20076;-95
2023/11/08 09:38:12;;;;;;;14.27;2.13;;;;;;;6.88;100.00;98930.38;4892454;29;20040;-96
2023/11/08 09:40:38;;;;;;;23.13;2.95;;;;;;;6.87;100.00;98926.09;4943388;29;20043;-95
2023/11/08 09:43:05;;;;;;;12.23;2.58;;;;;;;6.90;100.00;98939.75;4920340;29;20032;-96
2023/11/08 09:45:34;;;;;;;14.15;2.28;;;;;;;6.95;100.00;98940.09;4924885;29;20039;-92
2023/11/08 09:47:59;;;;;;;20.92;2.40;;;;;;;6.87;100.00;98939.22;4931327;29;20055;-93
2023/11/08 09:50:27;;;;;;;15.75;2.28;;;;;;;6.89;100.00;98943.38;4933894;29;20032;-93
2023/11/08 09:52:53;;;;;;;10.95;2.78;;;;;;;6.92;100.00;98955.34;4950118;28;20047;-96
2023/11/08 09:55:19;;;;;;;10.48;2.20;;;;;;;6.93;100.00;98949.09;4970886;28;20043;-94
2023/11/08 09:57:49;;;;;;;16.05;3.30;;;;;;;6.94;100.00;98953.41;4937626;29;20043;-95
2023/11/08 10:00:19;;;;;;;20.23;3.00;;;;;;;6.98;100.00;98959.13;4968915;28;20563;-95
2023/11/08 10:02:46;;;;;;;16.95;3.33;;;;;;;6.98;100.00;98954.72;4956379;28;20118;-95
2023/11/08 10:05:12;;;;;;;17.70;3.30;;;;;;;7.06;100.00;98964.44;4973301;28;20070;-95
2023/11/08 10:07:39;;;;;;;18.30;3.05;;;;;;;7.11;100.00;98961.31;4912430;29;20555;-95
2023/11/08 10:10:09;;;;;;;21.10;2.85;;;;;;;7.21;100.00;98964.66;4926102;29;20032;-95
2023/11/08 10:12:34;;;;;;;17.33;2.65;;;;;;;7.20;100.00;98955.94;4902974;29;20062;-95
2023/11/08 10:15:03;;;;;;;12.75;2.40;;;;;;;7.40;100.00;98968.00;4954863;28;20314;-94
2023/11/08 10:17:38;;;;;;;20.02;2.58;;;;;;;7.52;100.00;98976.41;4944365;29;20036;-96
2023/11/08 10:20:09;;;;;;;17.77;2.53;;;;;;;7.54;100.00;98977.06;4959709;28;20044;-95
2023/11/08 10:22:35;;;;;;;18.05;2.95;;;;;;;7.60;100.00;98978.25;4946835;29;20118;-95
2023/11/08 10:25:05;;;;;;;29.23;3.42;;;;;;;7.65;100.00;98979.41;4940861;29;20790;-96
2023/11/08 10:27:33;;;;;;;15.80;2.72;;;;;;;7.71;100.00;98975.28;4971890;28;20393;-96
2023/11/08 10:30:11;;;;;;;17.08;2.72;;;;;;;7.87;100.00;98973.69;4939273;29;20036;-96
2023/11/08 10:32:37;;;;;;;18.65;2.80;;;;;;;7.89;100.00;98992.75;4916007;29;20055;-95
2023/11/08 10:35:19;;;;;;;28.00;3.30;;;;;;;8.03;100.00;98983.38;4964857;28;20539;-95
2023/11/08 10:37:49;;;;;;;15.45;2.50;;;;;;;8.10;100.00;98983.53;4913453;29;20036;-96
2023/11/08 10:40:16;;;;;;;16.50;2.88;;;;;;;8.12;100.00;98985.00;4963283;28;20396;-96
2023/11/08 10:42:50;;;;;;;21.15;2.50;;;;;;;8.17;100.00;98987.97;4951809;28;20067;-95
2023/11/08 10:45:18;;;;;;;17.40;2.97;;;;;;;8.16;100.00;98985.50;4969948;28;20127;-95
2023/11/08 10:47:45;;;;;;;19.15;3.58;;;;;;;8.21;100.00;98985.84;4954091;28;20043;-92
2023/11/08 10:50:12;;;;;;;19.48;2.53;;;;;;;8.24;100.00;98988.16;4948137;28;20056;-92
2023/11/08 10:52:39;;;;;;;22.02;2.80;;;;;;;8.32;100.00;98988.16;4970167;28;20088;-95
2023/11/08 10:55:06;;;;;;;23.40;3.55;;;;;;;8.37;100.00;98992.09;4964665;28;20523;-95
2023/11/08 10:57:33;;;;;;;19.65;2.90;;;;;;;8.47;100.00;98999.81;4949608;28;20044;-93
2023/11/08 11:00:01;;;;;;;22.70;3.03;;;;;;;8.53;100.00;98996.53;4960471;28;20035;-92
2023/11/08 11:02:48;;;;;;;24.77;4.38;;;;;;;8.61;100.00;99011.50;4919422;29;20043;-96
2023/11/08 11:05:19;;;;;;;22.45;4.13;;;;;;;8.66;100.00;99010.00;4968375;28;20098;-96
2023/11/08 11:07:47;;;;;;;14.38;2.22;;;;;;;8.66;100.00;99011.84;4918107;29;20127;-92
2023/11/08 11:10:15;;;;;;;28.25;4.03;;;;;;;8.70;100.00;98997.34;4939791;28;20119;-93
2023/11/08 11:13:10;;;;;;;28.65;3.03;;;;;;;8.80;100.00;99000.63;4937276;29;20031;-96
2023/11/08 11:15:49;;;;;;;20.00;2.67;;;;;;;8.87;100.00;99007.84;4949789;28;20040;-93
2023/11/08 11:18:23;;;;;;;24.98;3.47;;;;;;;8.86;100.00;98998.28;4922660;29;20095;-93
2023/11/08 11:21:05;;;;;;;16.95;2.67;;;;;;;8.86;100.00;98988.56;4958241;28;20048;-94
2023/11/08 11:23:34;;;;;;;16.00;2.38;;;;;;;8.85;100.00;98986.94;4945908;29;20122;-92
2023/11/08 11:26:00;;;;;;;19.00;2.70;;;;;;;8.89;100.00;98982.97;4923685;29;20162;-95
2023/11/08 11:28:55;;;;;;;18.55;2.40;;;;;;;8.94;100.00;98985.09;4957902;28;20382;-96
2023/11/08 11:31:43;;;;;;;18.23;2.60;;;;;;;8.95;100.00;98976.19;4951593;28;20046;-96